Accueil
METAR-TAF:

METAR-TAF

Aéroports :

Aérodrome de Granges

Granges, Suisse

latitude: 47-10-53N, longitude: 007-24-59E, altitude: 430 m

Observation

Le bulletin a été fait il y a 38 minutes, à 07:20 UTC
Vent 1 kt de est
Température 20°C
Humidité 78%
Pression 1023 hPa
Visibilité: 9000 m
Quelques nuages à une hauteur de 5800 ft

METAR: LSZG 190720Z 08001KT 9000 FEW058 20/16 Q1023 NOSIG

Heure: 09:58 (07:58 UTC)

Prévision

Le bulletin a été fait il y a 2 heures et 33 minutes, à 05:25 UTC
Prévision valable du 19 à 06 UTC au 19 à 15 UTC
Vent 3 kt de direction variable
Visibilité: 3700 m
Quelques nuages à une hauteur de 5000 ft
brume
Evoluant progressivement
du 19 à 06 UTC au 19 à 08 UTC
Visibilité 10 km ou plus
Temporairement
du 19 à 08 UTC au 19 à 15 UTC
Visibilité 10 km ou plus
pas de nuages en-dessous de 1500 mètres et pas de cumulonimbus.

TAF: LSZG 190525Z 1906/1915 VRB03KT 3700 BR FEW050 BECMG 1906/1908 9999 TEMPO 1908/1915 CAVOK

Observations et prévisions météorologiques de plus de 4000 aéroports (messages METAR et TAF).

Les stations disponibles sont représentées par des disques jaunes et rouges sur la carte.

Passer la souris dessus pour voir le nom de la station.

Cliquer dessus pour voir les observations et prévisions météorologiques.

Pour changer de carte: cliquez sur les boutons verts avec une croix noire pour zoomer, sur le bouton vert avec un tiret pour effectuer un zoom arrière, ou sur les flèches vertes pour les cartes adjacentes.


METAR-TAF: